sensor_id;sensor_type;location;lat;lon;timestamp;pressure;altitude;pressure_sealevel;temperature;humidity
81913;BME280;71377;50.698;7.164;2023-07-29T00:01:02;100224.22;;;19.71;73.17
81913;BME280;71377;50.698;7.164;2023-07-29T00:03:29;100221.56;;;19.71;73.34
81913;BME280;71377;50.698;7.164;2023-07-29T00:05:59;100222.53;;;19.70;73.57
81913;BME280;71377;50.698;7.164;2023-07-29T00:08:25;100220.47;;;19.73;73.58
81913;BME280;71377;50.698;7.164;2023-07-29T00:10:52;100214.41;;;19.71;73.50
81913;BME280;71377;50.698;7.164;2023-07-29T00:13:19;100221.19;;;19.75;73.66
81913;BME280;71377;50.698;7.164;2023-07-29T00:15:47;100213.34;;;19.74;73.55
81913;BME280;71377;50.698;7.164;2023-07-29T00:18:14;100225.19;;;19.70;73.50
81913;BME280;71377;50.698;7.164;2023-07-29T00:20:40;100222.16;;;19.63;73.25
81913;BME280;71377;50.698;7.164;2023-07-29T00:23:07;100216.00;;;19.63;73.05
81913;BME280;71377;50.698;7.164;2023-07-29T00:25:33;100215.50;;;19.69;73.38
81913;BME280;71377;50.698;7.164;2023-07-29T00:27:59;100206.53;;;19.70;73.55
81913;BME280;71377;50.698;7.164;2023-07-29T00:30:26;100192.88;;;19.74;73.50
81913;BME280;71377;50.698;7.164;2023-07-29T00:32:52;100202.56;;;19.64;73.24
81913;BME280;71377;50.698;7.164;2023-07-29T00:35:19;100207.03;;;19.75;73.63
81913;BME280;71377;50.698;7.164;2023-07-29T00:37:45;100200.47;;;19.79;73.49
81913;BME280;71377;50.698;7.164;2023-07-29T00:40:19;100195.41;;;19.76;73.61
81913;BME280;71377;50.698;7.164;2023-07-29T00:42:46;100198.09;;;19.65;73.04
81913;BME280;71377;50.698;7.164;2023-07-29T00:45:12;100202.19;;;19.69;73.60
81913;BME280;71377;50.698;7.164;2023-07-29T00:47:39;100203.16;;;19.68;73.55
81913;BME280;71377;50.698;7.164;2023-07-29T00:50:06;100198.53;;;19.70;73.45
81913;BME280;71377;50.698;7.164;2023-07-29T00:52:33;100205.00;;;19.56;73.08
81913;BME280;71377;50.698;7.164;2023-07-29T00:55:00;100205.72;;;19.58;72.74
81913;BME280;71377;50.698;7.164;2023-07-29T00:57:27;100196.88;;;19.58;73.68
81913;BME280;71377;50.698;7.164;2023-07-29T00:59:57;100194.22;;;19.58;73.33
81913;BME280;71377;50.698;7.164;2023-07-29T01:02:25;100197.94;;;19.55;73.14
81913;BME280;71377;50.698;7.164;2023-07-29T01:04:54;100179.66;;;19.62;73.61
81913;BME280;71377;50.698;7.164;2023-07-29T01:07:31;100187.66;;;19.62;73.58
81913;BME280;71377;50.698;7.164;2023-07-29T01:10:17;100181.97;;;19.66;73.59
81913;BME280;71377;50.698;7.164;2023-07-29T01:12:51;100182.09;;;19.65;73.59
81913;BME280;71377;50.698;7.164;2023-07-29T01:15:33;100177.00;;;19.62;73.38
81913;BME280;71377;50.698;7.164;2023-07-29T01:18:05;100181.09;;;19.77;73.88
81913;BME280;71377;50.698;7.164;2023-07-29T01:20:33;100172.63;;;19.83;73.61
81913;BME280;71377;50.698;7.164;2023-07-29T01:23:01;100171.91;;;19.81;73.41
81913;BME280;71377;50.698;7.164;2023-07-29T01:25:28;100174.34;;;19.73;73.40
81913;BME280;71377;50.698;7.164;2023-07-29T01:27:54;100172.03;;;19.68;73.25
81913;BME280;71377;50.698;7.164;2023-07-29T01:30:28;100178.69;;;19.74;73.55
81913;BME280;71377;50.698;7.164;2023-07-29T01:33:14;100180.59;;;19.72;72.87
81913;BME280;71377;50.698;7.164;2023-07-29T01:35:45;100175.56;;;19.58;72.35
81913;BME280;71377;50.698;7.164;2023-07-29T01:38:29;100168.28;;;19.60;72.56
81913;BME280;71377;50.698;7.164;2023-07-29T01:41:01;100172.91;;;19.58;72.41
81913;BME280;71377;50.698;7.164;2023-07-29T01:43:29;100173.63;;;19.60;72.82
81913;BME280;71377;50.698;7.164;2023-07-29T01:45:56;100172.16;;;19.56;72.55
81913;BME280;71377;50.698;7.164;2023-07-29T01:48:23;100170.47;;;19.66;72.81
81913;BME280;71377;50.698;7.164;2023-07-29T01:50:50;100160.53;;;19.68;72.52
81913;BME280;71377;50.698;7.164;2023-07-29T01:53:16;100162.47;;;19.66;72.99
81913;BME280;71377;50.698;7.164;2023-07-29T01:55:43;100158.59;;;19.59;72.79
81913;BME280;71377;50.698;7.164;2023-07-29T01:58:11;100166.56;;;19.70;72.96
81913;BME280;71377;50.698;7.164;2023-07-29T02:00:38;100162.97;;;19.60;73.01
81913;BME280;71377;50.698;7.164;2023-07-29T02:03:04;100154.97;;;19.60;73.06
81913;BME280;71377;50.698;7.164;2023-07-29T02:05:30;100152.28;;;19.48;72.82
81913;BME280;71377;50.698;7.164;2023-07-29T02:07:57;100153.00;;;19.51;73.19
81913;BME280;71377;50.698;7.164;2023-07-29T02:10:24;100148.16;;;19.44;73.02
81913;BME280;71377;50.698;7.164;2023-07-29T02:12:50;100143.69;;;19.45;73.24
81913;BME280;71377;50.698;7.164;2023-07-29T02:15:16;100147.56;;;19.41;73.35
81913;BME280;71377;50.698;7.164;2023-07-29T02:17:43;100135.81;;;19.43;73.37
81913;BME280;71377;50.698;7.164;2023-07-29T02:20:10;100137.53;;;19.33;73.27
81913;BME280;71377;50.698;7.164;2023-07-29T02:22:37;100138.97;;;19.26;73.48
81913;BME280;71377;50.698;7.164;2023-07-29T02:25:04;100142.84;;;19.44;74.02
81913;BME280;71377;50.698;7.164;2023-07-29T02:27:31;100139.94;;;19.36;73.77
81913;BME280;71377;50.698;7.164;2023-07-29T02:29:57;100134.16;;;19.31;73.78
81913;BME280;71377;50.698;7.164;2023-07-29T02:32:24;100135.34;;;19.27;73.75
81913;BME280;71377;50.698;7.164;2023-07-29T02:34:51;100129.19;;;19.27;73.98
81913;BME280;71377;50.698;7.164;2023-07-29T02:37:17;100133.66;;;19.37;74.21
81913;BME280;71377;50.698;7.164;2023-07-29T02:39:44;100130.38;;;19.34;74.30
81913;BME280;71377;50.698;7.164;2023-07-29T02:42:11;100133.19;;;19.32;74.37
81913;BME280;71377;50.698;7.164;2023-07-29T02:44:39;100138.13;;;19.26;74.16
81913;BME280;71377;50.698;7.164;2023-07-29T02:47:06;100149.16;;;19.32;74.94
81913;BME280;71377;50.698;7.164;2023-07-29T02:49:32;100145.28;;;19.25;74.52
81913;BME280;71377;50.698;7.164;2023-07-29T02:51:58;100150.34;;;19.28;74.69
81913;BME280;71377;50.698;7.164;2023-07-29T02:54:25;100149.25;;;19.42;75.08
81913;BME280;71377;50.698;7.164;2023-07-29T02:56:52;100148.44;;;19.30;74.52
81913;BME280;71377;50.698;7.164;2023-07-29T02:59:19;100139.72;;;19.39;75.17
81913;BME280;71377;50.698;7.164;2023-07-29T03:01:46;100140.66;;;19.49;75.00
81913;BME280;71377;50.698;7.164;2023-07-29T03:04:13;100142.00;;;19.44;74.90
81913;BME280;71377;50.698;7.164;2023-07-29T03:06:39;100135.22;;;19.40;74.82
81913;BME280;71377;50.698;7.164;2023-07-29T03:09:06;100136.34;;;19.37;74.37
81913;BME280;71377;50.698;7.164;2023-07-29T03:11:32;100148.06;;;19.35;74.34
81913;BME280;71377;50.698;7.164;2023-07-29T03:13:58;100153.38;;;19.35;74.37
81913;BME280;71377;50.698;7.164;2023-07-29T03:16:25;100137.53;;;19.33;74.34
81913;BME280;71377;50.698;7.164;2023-07-29T03:18:51;100135.59;;;19.35;74.61
81913;BME280;71377;50.698;7.164;2023-07-29T03:21:18;100135.47;;;19.48;74.71
81913;BME280;71377;50.698;7.164;2023-07-29T03:23:44;100156.66;;;19.38;74.88
81913;BME280;71377;50.698;7.164;2023-07-29T03:26:11;100167.53;;;19.35;74.45
81913;BME280;71377;50.698;7.164;2023-07-29T03:28:42;100178.56;;;19.31;74.12
81913;BME280;71377;50.698;7.164;2023-07-29T03:31:09;100182.34;;;19.39;74.54
81913;BME280;71377;50.698;7.164;2023-07-29T03:33:37;100182.81;;;19.33;75.41
81913;BME280;71377;50.698;7.164;2023-07-29T03:36:03;100175.06;;;19.41;74.71
81913;BME280;71377;50.698;7.164;2023-07-29T03:38:30;100169.50;;;19.22;74.50
81913;BME280;71377;50.698;7.164;2023-07-29T03:40:57;100169.63;;;19.32;75.49
81913;BME280;71377;50.698;7.164;2023-07-29T03:43:23;100176.53;;;19.23;75.05
81913;BME280;71377;50.698;7.164;2023-07-29T03:45:50;100167.22;;;19.29;75.40
81913;BME280;71377;50.698;7.164;2023-07-29T03:48:16;100165.63;;;19.26;75.17
81913;BME280;71377;50.698;7.164;2023-07-29T03:50:43;100152.56;;;19.12;74.79
81913;BME280;71377;50.698;7.164;2023-07-29T03:53:09;100168.75;;;19.09;74.47
81913;BME280;71377;50.698;7.164;2023-07-29T03:55:36;100167.53;;;19.02;74.18
81913;BME280;71377;50.698;7.164;2023-07-29T03:58:02;100161.63;;;18.98;74.36
81913;BME280;71377;50.698;7.164;2023-07-29T04:00:29;100160.78;;;18.98;74.40
81913;BME280;71377;50.698;7.164;2023-07-29T04:02:55;100165.72;;;18.91;74.64
81913;BME280;71377;50.698;7.164;2023-07-29T04:05:22;100175.13;;;18.84;74.89
81913;BME280;71377;50.698;7.164;2023-07-29T04:07:48;100176.22;;;18.81;74.79
81913;BME280;71377;50.698;7.164;2023-07-29T04:10:14;100185.69;;;18.85;75.03
81913;BME280;71377;50.698;7.164;2023-07-29T04:12:41;100180.69;;;18.81;74.83
81913;BME280;71377;50.698;7.164;2023-07-29T04:15:08;100184.47;;;18.78;74.99
81913;BME280;71377;50.698;7.164;2023-07-29T04:17:34;100187.59;;;18.83;75.17
81913;BME280;71377;50.698;7.164;2023-07-29T04:20:01;100177.31;;;18.79;75.12
81913;BME280;71377;50.698;7.164;2023-07-29T04:22:27;100176.25;;;18.92;75.03
81913;BME280;71377;50.698;7.164;2023-07-29T04:24:54;100178.56;;;18.86;75.13
81913;BME280;71377;50.698;7.164;2023-07-29T04:27:21;100173.44;;;18.83;75.26
81913;BME280;71377;50.698;7.164;2023-07-29T04:29:47;100187.00;;;18.91;75.25
81913;BME280;71377;50.698;7.164;2023-07-29T04:32:13;100182.00;;;18.75;75.08
81913;BME280;71377;50.698;7.164;2023-07-29T04:34:40;100187.59;;;18.72;75.15
81913;BME280;71377;50.698;7.164;2023-07-29T04:37:06;100178.63;;;18.73;75.21
81913;BME280;71377;50.698;7.164;2023-07-29T04:39:33;100172.84;;;18.79;75.04
81913;BME280;71377;50.698;7.164;2023-07-29T04:41:59;100178.88;;;18.81;75.20
81913;BME280;71377;50.698;7.164;2023-07-29T04:44:27;100171.75;;;18.82;75.23
81913;BME280;71377;50.698;7.164;2023-07-29T04:46:53;100169.72;;;18.97;75.15
81913;BME280;71377;50.698;7.164;2023-07-29T04:49:20;100177.44;;;18.88;75.05
81913;BME280;71377;50.698;7.164;2023-07-29T04:51:46;100177.22;;;18.91;75.25
81913;BME280;71377;50.698;7.164;2023-07-29T04:54:12;100179.59;;;18.83;75.10
81913;BME280;71377;50.698;7.164;2023-07-29T04:56:39;100183.25;;;18.82;75.33
81913;BME280;71377;50.698;7.164;2023-07-29T04:59:05;100185.91;;;18.82;75.19
81913;BME280;71377;50.698;7.164;2023-07-29T05:01:34;100184.72;;;18.86;75.22
81913;BME280;71377;50.698;7.164;2023-07-29T05:04:01;100187.47;;;18.85;75.13
81913;BME280;71377;50.698;7.164;2023-07-29T05:06:29;100185.19;;;18.91;75.31
81913;BME280;71377;50.698;7.164;2023-07-29T05:09:12;100178.91;;;18.92;75.13
81913;BME280;71377;50.698;7.164;2023-07-29T05:11:39;100186.53;;;18.97;75.23
81913;BME280;71377;50.698;7.164;2023-07-29T05:14:06;100190.88;;;18.87;75.13
81913;BME280;71377;50.698;7.164;2023-07-29T05:16:32;100195.38;;;18.86;75.28
81913;BME280;71377;50.698;7.164;2023-07-29T05:18:59;100201.66;;;18.85;75.24
81913;BME280;71377;50.698;7.164;2023-07-29T05:21:26;100197.06;;;18.87;75.15
81913;BME280;71377;50.698;7.164;2023-07-29T05:23:52;100204.06;;;18.88;75.20
81913;BME280;71377;50.698;7.164;2023-07-29T05:26:19;100200.09;;;18.94;75.24
81913;BME280;71377;50.698;7.164;2023-07-29T05:28:45;100195.25;;;18.99;75.17
81913;BME280;71377;50.698;7.164;2023-07-29T05:31:12;100187.63;;;19.06;75.05
81913;BME280;71377;50.698;7.164;2023-07-29T05:33:38;100186.19;;;19.13;75.12
81913;BME280;71377;50.698;7.164;2023-07-29T05:36:05;100188.38;;;19.19;74.90
81913;BME280;71377;50.698;7.164;2023-07-29T05:38:31;100200.22;;;19.15;74.85
81913;BME280;71377;50.698;7.164;2023-07-29T05:40:58;100203.75;;;19.15;74.89
81913;BME280;71377;50.698;7.164;2023-07-29T05:43:24;100215.25;;;19.16;75.06
81913;BME280;71377;50.698;7.164;2023-07-29T05:45:51;100215.00;;;19.19;74.82
81913;BME280;71377;50.698;7.164;2023-07-29T05:48:18;100208.94;;;19.17;74.97
81913;BME280;71377;50.698;7.164;2023-07-29T05:50:44;100197.81;;;19.23;75.05
81913;BME280;71377;50.698;7.164;2023-07-29T05:53:10;100196.13;;;19.44;74.94
81913;BME280;71377;50.698;7.164;2023-07-29T05:55:37;100200.59;;;19.33;75.14
81913;BME280;71377;50.698;7.164;2023-07-29T05:58:03;100191.78;;;19.32;74.86
81913;BME280;71377;50.698;7.164;2023-07-29T06:00:30;100193.94;;;19.27;74.85
81913;BME280;71377;50.698;7.164;2023-07-29T06:02:56;100205.94;;;19.33;74.87
81913;BME280;71377;50.698;7.164;2023-07-29T06:05:23;100208.84;;;19.30;74.86
81913;BME280;71377;50.698;7.164;2023-07-29T06:07:49;100213.91;;;19.33;74.91
81913;BME280;71377;50.698;7.164;2023-07-29T06:10:16;100212.22;;;19.32;74.81
81913;BME280;71377;50.698;7.164;2023-07-29T06:12:46;100215.75;;;19.32;74.97
81913;BME280;71377;50.698;7.164;2023-07-29T06:15:12;100224.44;;;19.45;74.88
81913;BME280;71377;50.698;7.164;2023-07-29T06:17:40;100233.66;;;19.41;74.89
81913;BME280;71377;50.698;7.164;2023-07-29T06:20:07;100230.13;;;19.52;74.91
81913;BME280;71377;50.698;7.164;2023-07-29T06:22:34;100245.53;;;19.48;75.00
81913;BME280;71377;50.698;7.164;2023-07-29T06:25:00;100247.47;;;19.46;74.82
81913;BME280;71377;50.698;7.164;2023-07-29T06:27:27;100239.22;;;19.49;74.79
81913;BME280;71377;50.698;7.164;2023-07-29T06:29:54;100243.72;;;19.49;74.79
81913;BME280;71377;50.698;7.164;2023-07-29T06:32:20;100244.84;;;19.58;74.81
81913;BME280;71377;50.698;7.164;2023-07-29T06:34:47;100250.16;;;19.58;74.99
81913;BME280;71377;50.698;7.164;2023-07-29T06:37:13;100254.50;;;19.70;74.93
81913;BME280;71377;50.698;7.164;2023-07-29T06:39:39;100256.81;;;19.63;74.72
81913;BME280;71377;50.698;7.164;2023-07-29T06:42:06;100255.97;;;19.74;75.06
81913;BME280;71377;50.698;7.164;2023-07-29T06:44:33;100268.56;;;19.72;74.77
81913;BME280;71377;50.698;7.164;2023-07-29T06:46:59;100255.72;;;19.77;74.72
81913;BME280;71377;50.698;7.164;2023-07-29T06:49:25;100257.41;;;19.78;74.86
81913;BME280;71377;50.698;7.164;2023-07-29T06:51:52;100260.06;;;19.89;75.15
81913;BME280;71377;50.698;7.164;2023-07-29T06:54:18;100252.28;;;19.97;74.89
81913;BME280;71377;50.698;7.164;2023-07-29T06:56:45;100246.06;;;20.19;75.36
81913;BME280;71377;50.698;7.164;2023-07-29T06:59:11;100265.41;;;20.00;75.10
81913;BME280;71377;50.698;7.164;2023-07-29T07:01:38;100259.06;;;20.13;74.59
81913;BME280;71377;50.698;7.164;2023-07-29T07:04:04;100258.44;;;20.20;74.57
81913;BME280;71377;50.698;7.164;2023-07-29T07:06:30;100248.03;;;20.17;76.16
81913;BME280;71377;50.698;7.164;2023-07-29T07:08:57;100244.00;;;20.23;75.90
81913;BME280;71377;50.698;7.164;2023-07-29T07:11:23;100254.56;;;20.88;76.62
81913;BME280;71377;50.698;7.164;2023-07-29T07:13:50;100264.53;;;21.07;75.75
81913;BME280;71377;50.698;7.164;2023-07-29T07:16:16;100261.75;;;21.30;76.25
81913;BME280;71377;50.698;7.164;2023-07-29T07:18:43;100271.38;;;21.42;76.97
81913;BME280;71377;50.698;7.164;2023-07-29T07:21:10;100273.25;;;21.51;78.08
81913;BME280;71377;50.698;7.164;2023-07-29T07:23:38;100283.31;;;21.38;77.50
81913;BME280;71377;50.698;7.164;2023-07-29T07:26:05;100286.66;;;21.30;77.62
81913;BME280;71377;50.698;7.164;2023-07-29T07:28:31;100285.38;;;21.13;78.42
81913;BME280;71377;50.698;7.164;2023-07-29T07:30:58;100289.91;;;21.02;78.71
81913;BME280;71377;50.698;7.164;2023-07-29T07:33:25;100284.28;;;20.95;78.97
81913;BME280;71377;50.698;7.164;2023-07-29T07:35:52;100275.53;;;20.93;78.17
81913;BME280;71377;50.698;7.164;2023-07-29T07:38:19;100286.22;;;21.14;79.12
81913;BME280;71377;50.698;7.164;2023-07-29T07:40:55;100286.09;;;20.95;79.08
81913;BME280;71377;50.698;7.164;2023-07-29T07:43:23;100288.38;;;21.20;79.26
81913;BME280;71377;50.698;7.164;2023-07-29T07:45:49;100284.84;;;21.20;79.40
81913;BME280;71377;50.698;7.164;2023-07-29T07:48:17;100288.06;;;21.34;79.47
81913;BME280;71377;50.698;7.164;2023-07-29T07:50:43;100284.66;;;21.11;79.06
81913;BME280;71377;50.698;7.164;2023-07-29T07:53:10;100283.09;;;20.88;79.28
81913;BME280;71377;50.698;7.164;2023-07-29T07:55:36;100286.31;;;21.54;79.48
81913;BME280;71377;50.698;7.164;2023-07-29T07:58:03;100297.53;;;21.69;79.81
81913;BME280;71377;50.698;7.164;2023-07-29T08:00:30;100287.03;;;21.87;79.95
81913;BME280;71377;50.698;7.164;2023-07-29T08:02:56;100278.38;;;22.04;80.13
81913;BME280;71377;50.698;7.164;2023-07-29T08:05:23;100278.72;;;22.20;80.56
81913;BME280;71377;50.698;7.164;2023-07-29T08:07:49;100270.63;;;22.01;80.51
81913;BME280;71377;50.698;7.164;2023-07-29T08:10:16;100277.28;;;22.07;79.91
81913;BME280;71377;50.698;7.164;2023-07-29T08:12:42;100283.97;;;21.91;80.67
81913;BME280;71377;50.698;7.164;2023-07-29T08:15:09;100284.50;;;21.85;80.39
81913;BME280;71377;50.698;7.164;2023-07-29T08:17:35;100287.94;;;21.66;80.34
81913;BME280;71377;50.698;7.164;2023-07-29T08:20:02;100296.63;;;21.59;80.94
81913;BME280;71377;50.698;7.164;2023-07-29T08:22:28;100284.72;;;21.42;80.73
81913;BME280;71377;50.698;7.164;2023-07-29T08:24:55;100281.88;;;21.34;80.29
81913;BME280;71377;50.698;7.164;2023-07-29T08:27:21;100288.09;;;21.65;79.88
81913;BME280;71377;50.698;7.164;2023-07-29T08:29:47;100294.34;;;21.54;80.07
81913;BME280;71377;50.698;7.164;2023-07-29T08:32:14;100283.03;;;21.41;80.57
81913;BME280;71377;50.698;7.164;2023-07-29T08:34:40;100290.66;;;21.45;80.96
81913;BME280;71377;50.698;7.164;2023-07-29T08:37:07;100294.59;;;21.72;80.08
81913;BME280;71377;50.698;7.164;2023-07-29T08:39:33;100301.09;;;21.89;79.39
81913;BME280;71377;50.698;7.164;2023-07-29T08:42:08;100307.19;;;21.60;79.61
81913;BME280;71377;50.698;7.164;2023-07-29T08:44:43;100303.81;;;21.58;79.43
81913;BME280;71377;50.698;7.164;2023-07-29T08:47:11;100306.09;;;21.42;80.27
81913;BME280;71377;50.698;7.164;2023-07-29T08:49:38;100305.69;;;21.67;80.12
81913;BME280;71377;50.698;7.164;2023-07-29T08:52:07;100313.78;;;21.87;79.51
81913;BME280;71377;50.698;7.164;2023-07-29T08:54:34;100321.69;;;21.37;80.46
81913;BME280;71377;50.698;7.164;2023-07-29T08:57:01;100315.75;;;21.33;81.31
81913;BME280;71377;50.698;7.164;2023-07-29T08:59:28;100313.47;;;21.50;80.90
81913;BME280;71377;50.698;7.164;2023-07-29T09:01:56;100314.41;;;21.39;80.87
81913;BME280;71377;50.698;7.164;2023-07-29T09:04:23;100318.59;;;21.21;80.86
81913;BME280;71377;50.698;7.164;2023-07-29T09:06:51;100319.69;;;20.97;80.45
81913;BME280;71377;50.698;7.164;2023-07-29T09:09:18;100326.34;;;21.03;80.69
81913;BME280;71377;50.698;7.164;2023-07-29T09:11:44;100325.69;;;21.10;81.06
81913;BME280;71377;50.698;7.164;2023-07-29T09:14:11;100322.72;;;21.04;81.38
81913;BME280;71377;50.698;7.164;2023-07-29T09:16:39;100325.69;;;21.10;81.17
81913;BME280;71377;50.698;7.164;2023-07-29T09:19:06;100326.09;;;21.06;81.58
81913;BME280;71377;50.698;7.164;2023-07-29T09:21:33;100326.00;;;20.96;80.85
81913;BME280;71377;50.698;7.164;2023-07-29T09:24:03;100326.66;;;21.09;81.47
81913;BME280;71377;50.698;7.164;2023-07-29T09:26:30;100313.97;;;21.23;81.07
81913;BME280;71377;50.698;7.164;2023-07-29T09:28:58;100317.78;;;21.20;81.43
81913;BME280;71377;50.698;7.164;2023-07-29T09:31:27;100326.72;;;20.98;82.32
81913;BME280;71377;50.698;7.164;2023-07-29T09:34:02;100314.81;;;21.23;81.67
81913;BME280;71377;50.698;7.164;2023-07-29T09:36:33;100314.91;;;21.12;80.26
81913;BME280;71377;50.698;7.164;2023-07-29T09:39:00;100317.63;;;21.22;80.13
81913;BME280;71377;50.698;7.164;2023-07-29T09:41:28;100320.31;;;21.22;79.16
81913;BME280;71377;50.698;7.164;2023-07-29T09:43:59;100314.78;;;21.34;79.65
81913;BME280;71377;50.698;7.164;2023-07-29T09:46:32;100323.41;;;21.38;79.21
81913;BME280;71377;50.698;7.164;2023-07-29T09:49:02;100334.13;;;21.27;81.23
81913;BME280;71377;50.698;7.164;2023-07-29T09:51:28;100319.28;;;21.34;81.71
81913;BME280;71377;50.698;7.164;2023-07-29T09:53:55;100318.25;;;21.46;80.90
81913;BME280;71377;50.698;7.164;2023-07-29T09:56:26;100329.19;;;21.43;80.89
81913;BME280;71377;50.698;7.164;2023-07-29T09:58:55;100329.53;;;21.29;80.70
81913;BME280;71377;50.698;7.164;2023-07-29T10:01:22;100338.97;;;21.33;79.12
81913;BME280;71377;50.698;7.164;2023-07-29T10:03:49;100328.84;;;21.36;80.59
81913;BME280;71377;50.698;7.164;2023-07-29T10:06:17;100333.53;;;21.44;81.87
81913;BME280;71377;50.698;7.164;2023-07-29T10:08:43;100344.28;;;21.75;81.34
81913;BME280;71377;50.698;7.164;2023-07-29T10:11:11;100340.44;;;21.98;80.72
81913;BME280;71377;50.698;7.164;2023-07-29T10:13:38;100346.75;;;21.97;80.78
81913;BME280;71377;50.698;7.164;2023-07-29T10:16:05;100338.13;;;21.84;80.69
81913;BME280;71377;50.698;7.164;2023-07-29T10:18:33;100346.94;;;21.75;80.51
81913;BME280;71377;50.698;7.164;2023-07-29T10:21:01;100340.94;;;21.82;79.45
81913;BME280;71377;50.698;7.164;2023-07-29T10:23:32;100347.75;;;21.96;79.27
81913;BME280;71377;50.698;7.164;2023-07-29T10:26:05;100346.03;;;21.95;80.24
81913;BME280;71377;50.698;7.164;2023-07-29T10:28:32;100338.84;;;22.16;78.66
81913;BME280;71377;50.698;7.164;2023-07-29T10:31:02;100342.13;;;22.29;78.68
81913;BME280;71377;50.698;7.164;2023-07-29T10:33:31;100344.50;;;22.33;78.45
81913;BME280;71377;50.698;7.164;2023-07-29T10:36:01;100345.91;;;22.17;78.71
81913;BME280;71377;50.698;7.164;2023-07-29T10:38:28;100347.75;;;21.96;79.40
81913;BME280;71377;50.698;7.164;2023-07-29T10:40:56;100342.22;;;21.57;80.81
81913;BME280;71377;50.698;7.164;2023-07-29T10:43:32;100340.09;;;21.82;81.30
81913;BME280;71377;50.698;7.164;2023-07-29T10:46:22;100353.03;;;21.86;81.20
81913;BME280;71377;50.698;7.164;2023-07-29T10:48:56;100358.31;;;21.67;81.53
81913;BME280;71377;50.698;7.164;2023-07-29T10:51:27;100353.84;;;21.47;83.03
81913;BME280;71377;50.698;7.164;2023-07-29T10:54:03;100360.94;;;21.04;83.01
81913;BME280;71377;50.698;7.164;2023-07-29T10:56:32;100355.22;;;20.77;82.13
81913;BME280;71377;50.698;7.164;2023-07-29T10:59:31;100361.66;;;20.74;81.43
81913;BME280;71377;50.698;7.164;2023-07-29T11:01:59;100360.81;;;20.74;80.53
81913;BME280;71377;50.698;7.164;2023-07-29T11:04:26;100361.28;;;20.79;80.09
81913;BME280;71377;50.698;7.164;2023-07-29T11:15:23;100353.00;;;20.82;78.20
81913;BME280;71377;50.698;7.164;2023-07-29T11:20:18;100348.94;;;21.20;78.20
81913;BME280;71377;50.698;7.164;2023-07-29T11:22:45;100345.44;;;21.30;77.65
81913;BME280;71377;50.698;7.164;2023-07-29T11:25:13;100351.72;;;21.50;78.55
81913;BME280;71377;50.698;7.164;2023-07-29T11:27:40;100350.81;;;21.40;78.81
81913;BME280;71377;50.698;7.164;2023-07-29T11:30:09;100353.38;;;21.41;79.22
81913;BME280;71377;50.698;7.164;2023-07-29T11:32:38;100355.16;;;21.20;79.03
81913;BME280;71377;50.698;7.164;2023-07-29T11:35:07;100357.81;;;21.31;79.35
81913;BME280;71377;50.698;7.164;2023-07-29T11:37:34;100360.72;;;21.49;79.51
81913;BME280;71377;50.698;7.164;2023-07-29T11:40:01;100354.06;;;21.64;79.42
81913;BME280;71377;50.698;7.164;2023-07-29T11:42:32;100351.59;;;21.72;79.85
81913;BME280;71377;50.698;7.164;2023-07-29T11:45:01;100347.59;;;22.18;79.65
81913;BME280;71377;50.698;7.164;2023-07-29T11:47:27;100353.00;;;21.77;80.48
81913;BME280;71377;50.698;7.164;2023-07-29T11:49:58;100346.31;;;21.61;80.53
81913;BME280;71377;50.698;7.164;2023-07-29T11:52:24;100339.09;;;21.83;80.44
81913;BME280;71377;50.698;7.164;2023-07-29T11:54:52;100345.31;;;22.14;79.83
81913;BME280;71377;50.698;7.164;2023-07-29T11:57:19;100324.47;;;22.08;80.22
81913;BME280;71377;50.698;7.164;2023-07-29T11:59:46;100324.50;;;22.17;79.78
81913;BME280;71377;50.698;7.164;2023-07-29T12:02:15;100314.28;;;22.80;77.98
81913;BME280;71377;50.698;7.164;2023-07-29T12:04:44;100325.13;;;23.27;77.83
81913;BME280;71377;50.698;7.164;2023-07-29T12:07:13;100310.66;;;23.77;76.11
81913;BME280;71377;50.698;7.164;2023-07-29T12:09:42;100308.44;;;24.27;76.49
81913;BME280;71377;50.698;7.164;2023-07-29T12:12:09;100312.34;;;24.60;73.81
81913;BME280;71377;50.698;7.164;2023-07-29T12:14:35;100300.66;;;24.87;74.20
81913;BME280;71377;50.698;7.164;2023-07-29T12:17:04;100294.81;;;25.09;72.51
81913;BME280;71377;50.698;7.164;2023-07-29T12:19:35;100286.53;;;25.47;73.40
81913;BME280;71377;50.698;7.164;2023-07-29T12:22:03;100292.94;;;25.80;69.33
81913;BME280;71377;50.698;7.164;2023-07-29T12:24:30;100292.31;;;25.60;71.21
81913;BME280;71377;50.698;7.164;2023-07-29T12:26:58;100287.94;;;25.85;68.19
81913;BME280;71377;50.698;7.164;2023-07-29T12:29:24;100289.47;;;25.96;69.49
81913;BME280;71377;50.698;7.164;2023-07-29T12:34:27;100286.09;;;26.36;66.82
81913;BME280;71377;50.698;7.164;2023-07-29T12:36:58;100275.38;;;26.60;66.79
81913;BME280;71377;50.698;7.164;2023-07-29T12:39:27;100272.34;;;26.63;65.72
81913;BME280;71377;50.698;7.164;2023-07-29T12:41:57;100271.41;;;25.72;69.31
81913;BME280;71377;50.698;7.164;2023-07-29T12:44:26;100269.25;;;26.34;66.71
81913;BME280;71377;50.698;7.164;2023-07-29T12:46:53;100270.19;;;27.16;64.94
81913;BME280;71377;50.698;7.164;2023-07-29T12:49:20;100262.59;;;26.62;65.46
81913;BME280;71377;50.698;7.164;2023-07-29T12:51:46;100258.88;;;26.71;65.19
81913;BME280;71377;50.698;7.164;2023-07-29T12:54:12;100262.88;;;27.41;61.94
81913;BME280;71377;50.698;7.164;2023-07-29T12:56:39;100258.78;;;27.61;61.85
81913;BME280;71377;50.698;7.164;2023-07-29T12:59:05;100249.59;;;28.71;58.73
81913;BME280;71377;50.698;7.164;2023-07-29T13:01:32;100244.22;;;29.09;55.22
81913;BME280;71377;50.698;7.164;2023-07-29T13:03:58;100251.75;;;29.37;55.25
81913;BME280;71377;50.698;7.164;2023-07-29T13:06:25;100257.13;;;29.22;57.01